CST,Max TemperatureF,Mean TemperatureF,Min TemperatureF,Max Dew PointF,MeanDew PointF,Min DewpointF,Max Humidity, Mean Humidity, Min Humidity, Max Sea Level PressureIn, Mean Sea Level PressureIn, Min Sea Level PressureIn, Max VisibilityMiles, Mean VisibilityMiles, Min VisibilityMiles, Max Wind SpeedMPH, Mean Wind SpeedMPH, Max Gust SpeedMPH,PrecipitationIn, CloudCover, Events, WindDirDegrees
2014-1-1,48,32,15,29,24,13,95,67,46,30.25,30.05,29.92,10,8,1,15,8,25,0.00,3,,351
2014-1-2,20,12,4,12,6,0,95,72,50,30.46,30.40,30.25,10,10,4,10,6,22,0.00,2,,338
2014-1-3,41,22,4,24,15,3,92,65,48,30.46,30.16,29.87,10,10,10,22,8,32,0.00,0,,185
2014-1-4,47,36,25,37,30,20,100,74,54,29.95,29.84,29.79,10,9,3,23,14,32,0.00,4,,199
2014-1-5,25,14,3,25,8,-6,98,74,49,30.51,30.20,29.93,10,6,1,20,15,30,0.00,5,,2
2014-1-6,10,2,-7,-5,-11,-18,77,57,45,30.63,30.55,30.45,10,10,10,13,6,18,0.00,0,,292
2014-1-7,35,16,-2,23,10,-8,74,60,53,30.45,30.25,30.14,10,10,10,24,10,31,0.00,0,,209
2014-1-8,40,35,30,36,23,16,100,65,50,30.29,30.24,30.20,10,8,2,13,7,,0.00,4,,160
2014-1-9,35,32,28,31,30,28,100,100,100,30.26,30.17,30.01,4,2,0,7,3,,0.00,8,,95
2014-1-10,53,44,34,54,45,34,100,98,89,29.99,29.71,29.54,10,6,0,20,7,26,0.01,6,Thunderstorm,208
2014-1-11,50,40,30,37,33,29,100,81,48,29.98,29.86,29.68,10,9,4,14,6,22,0.00,1,,272
2014-1-12,65,48,30,38,31,28,100,49,29,29.94,29.70,29.53,10,10,10,37,14,53,0.00,0,,203
2014-1-13,55,45,35,39,31,26,86,63,37,29.91,29.85,29.64,10,10,10,16,7,21,0.00,0,,297
2014-1-14,50,40,30,33,23,14,65,50,27,30.22,30.03,29.82,10,10,10,18,8,28,0.00,0,,309
2014-1-15,40,31,22,24,17,11,66,53,42,30.28,30.15,29.87,10,10,10,15,7,21,0.00,1,,286
2014-1-16,50,41,32,30,24,11,73,48,29,30.08,29.92,29.83,10,10,10,26,12,36,0.00,1,,301
2014-1-17,37,30,22,16,7,0,65,42,22,30.21,30.14,30.05,10,10,10,21,12,36,0.00,0,,308
2014-1-18,55,42,28,28,22,15,67,49,31,30.15,29.94,29.83,10,10,10,28,11,36,0.00,1,,285
2014-1-19,58,40,21,30,25,18,90,60,32,30.15,30.02,29.89,10,10,10,21,7,30,0.00,0,,228
2014-1-20,58,44,29,31,26,15,86,52,29,30.23,29.98,29.86,10,10,10,24,7,36,0.00,0,,343
2014-1-21,30,20,11,16,4,-4,70,52,30,30.47,30.32,30.14,10,10,10,21,10,30,0.00,1,,342
2014-1-22,40,29,18,21,13,8,70,54,32,30.38,30.18,30.10,10,10,10,22,5,33,0.00,1,,312
2014-1-23,23,14,5,9,-3,-7,85,50,33,30.79,30.69,30.40,10,10,10,22,11,32,0.00,0,,6
2014-1-24,37,21,5,10,5,0,84,47,27,30.72,30.31,29.92,10,10,10,26,12,37,0.00,0,,223
2014-1-25,54,42,29,35,26,10,89,56,35,30.02,29.96,29.86,10,10,10,18,9,24,0.00,2,,290
2014-1-26,60,46,32,33,27,4,78,54,27,30.10,29.78,29.68,10,10,10,29,10,41,0.00,0,,279
2014-1-27,31,22,13,6,-5,-10,41,35,30,30.49,30.38,30.12,10,10,10,23,14,33,0.00,1,,12
2014-1-28,25,18,10,7,-1,-6,75,45,30,30.52,30.43,30.34,10,10,10,10,4,,0.00,1,,10
2014-1-29,41,26,10,16,11,4,93,56,29,30.34,30.19,29.99,10,10,10,22,7,29,0.00,0,,205
2014-1-30,47,39,31,24,16,10,69,41,33,29.98,29.85,29.75,10,10,10,32,18,41,0.00,0,,214
2014-1-31,38,34,30,31,26,21,100,79,54,29.96,29.91,29.82,10,6,1,17,9,22,0.00,7,,53